sensor_id;sensor_type;location;lat;lon;timestamp;pressure;altitude;pressure_sealevel;temperature;humidity
23253;BME280;11795;47.054;15.408;2023-05-29T00:00:00;97380;;;18.1;58.8
23253;BME280;11795;47.054;15.408;2023-05-29T00:02:00;97390;;;18.0;59.3
23253;BME280;11795;47.054;15.408;2023-05-29T00:04:00;97380;;;17.9;59.8
23253;BME280;11795;47.054;15.408;2023-05-29T00:06:02;97380;;;18.0;59.6
23253;BME280;11795;47.054;15.408;2023-05-29T00:08:00;97380;;;17.9;60.0
23253;BME280;11795;47.054;15.408;2023-05-29T00:10:00;97380;;;18.0;60.0
23253;BME280;11795;47.054;15.408;2023-05-29T00:12:01;97380;;;17.8;60.3
23253;BME280;11795;47.054;15.408;2023-05-29T00:14:00;97380;;;17.7;60.4
23253;BME280;11795;47.054;15.408;2023-05-29T00:16:01;97370;;;17.9;59.8
23253;BME280;11795;47.054;15.408;2023-05-29T00:18:01;97370;;;17.7;60.2
23253;BME280;11795;47.054;15.408;2023-05-29T00:20:02;97370;;;17.8;59.9
23253;BME280;11795;47.054;15.408;2023-05-29T00:22:00;97370;;;17.7;60.1
23253;BME280;11795;47.054;15.408;2023-05-29T00:24:00;97370;;;17.6;60.5
23253;BME280;11795;47.054;15.408;2023-05-29T00:26:00;97370;;;17.8;60.0
23253;BME280;11795;47.054;15.408;2023-05-29T00:28:00;97370;;;17.6;60.8
23253;BME280;11795;47.054;15.408;2023-05-29T00:30:02;97360;;;17.6;60.7
23253;BME280;11795;47.054;15.408;2023-05-29T00:32:00;97370;;;17.6;60.8
23253;BME280;11795;47.054;15.408;2023-05-29T00:34:00;97360;;;17.5;61.4
23253;BME280;11795;47.054;15.408;2023-05-29T00:36:00;97360;;;17.6;61.2
23253;BME280;11795;47.054;15.408;2023-05-29T00:38:00;97360;;;17.5;61.9
23253;BME280;11795;47.054;15.408;2023-05-29T00:40:00;97360;;;17.6;62.1
23253;BME280;11795;47.054;15.408;2023-05-29T00:42:00;97370;;;17.4;62.7
23253;BME280;11795;47.054;15.408;2023-05-29T00:44:00;97360;;;17.4;62.8
23253;BME280;11795;47.054;15.408;2023-05-29T00:46:00;97370;;;17.5;62.6
23253;BME280;11795;47.054;15.408;2023-05-29T00:48:00;97360;;;17.4;63.1
23253;BME280;11795;47.054;15.408;2023-05-29T00:50:02;97370;;;17.5;62.8
23253;BME280;11795;47.054;15.408;2023-05-29T00:52:01;97370;;;17.4;63.3
23253;BME280;11795;47.054;15.408;2023-05-29T00:54:00;97370;;;17.3;63.4
23253;BME280;11795;47.054;15.408;2023-05-29T00:56:01;97370;;;17.3;63.5
23253;BME280;11795;47.054;15.408;2023-05-29T00:58:00;97360;;;17.2;63.8
23253;BME280;11795;47.054;15.408;2023-05-29T01:00:02;97360;;;17.4;63.1
23253;BME280;11795;47.054;15.408;2023-05-29T01:02:01;97360;;;17.3;63.6
23253;BME280;11795;47.054;15.408;2023-05-29T01:04:03;97360;;;17.4;63.5
23253;BME280;11795;47.054;15.408;2023-05-29T01:06:00;97360;;;17.4;63.2
23253;BME280;11795;47.054;15.408;2023-05-29T01:08:00;97360;;;17.3;63.8
23253;BME280;11795;47.054;15.408;2023-05-29T01:10:00;97360;;;17.4;64.0
23253;BME280;11795;47.054;15.408;2023-05-29T01:14:03;97360;;;17.3;64.6
23253;BME280;11795;47.054;15.408;2023-05-29T01:16:04;97360;;;17.3;64.7
23253;BME280;11795;47.054;15.408;2023-05-29T01:18:10;97360;;;17.1;65.4
23253;BME280;11795;47.054;15.408;2023-05-29T01:20:09;97360;;;17.3;65.0
23253;BME280;11795;47.054;15.408;2023-05-29T01:22:11;97360;;;17.2;65.3
23253;BME280;11795;47.054;15.408;2023-05-29T01:24:03;97360;;;17.3;65.2
23253;BME280;11795;47.054;15.408;2023-05-29T01:26:11;97360;;;17.2;65.4
23253;BME280;11795;47.054;15.408;2023-05-29T01:28:02;97360;;;17.1;65.8
23253;BME280;11795;47.054;15.408;2023-05-29T01:30:02;97360;;;17.2;65.3
23253;BME280;11795;47.054;15.408;2023-05-29T01:32:01;97360;;;17.1;65.7
23253;BME280;11795;47.054;15.408;2023-05-29T01:34:01;97360;;;17.1;65.6
23253;BME280;11795;47.054;15.408;2023-05-29T01:36:00;97350;;;17.2;65.2
23253;BME280;11795;47.054;15.408;2023-05-29T01:38:00;97360;;;17.0;65.8
23253;BME280;11795;47.054;15.408;2023-05-29T01:40:00;97360;;;17.0;66.0
23253;BME280;11795;47.054;15.408;2023-05-29T01:42:01;97350;;;16.9;66.5
23253;BME280;11795;47.054;15.408;2023-05-29T01:44:02;97340;;;16.9;66.5
23253;BME280;11795;47.054;15.408;2023-05-29T01:46:00;97340;;;17.0;66.1
23253;BME280;11795;47.054;15.408;2023-05-29T01:48:00;97340;;;16.8;66.6
23253;BME280;11795;47.054;15.408;2023-05-29T01:50:00;97340;;;16.8;66.7
23253;BME280;11795;47.054;15.408;2023-05-29T01:52:00;97340;;;16.8;66.6
23253;BME280;11795;47.054;15.408;2023-05-29T01:54:00;97340;;;16.6;67.0
23253;BME280;11795;47.054;15.408;2023-05-29T01:56:01;97340;;;16.8;66.4
23253;BME280;11795;47.054;15.408;2023-05-29T01:58:01;97340;;;16.6;67.1
23253;BME280;11795;47.054;15.408;2023-05-29T02:00:01;97340;;;16.8;66.6
23253;BME280;11795;47.054;15.408;2023-05-29T02:02:04;97330;;;16.6;67.2
23253;BME280;11795;47.054;15.408;2023-05-29T02:04:00;97340;;;16.5;67.3
23253;BME280;11795;47.054;15.408;2023-05-29T02:06:01;97330;;;16.7;66.9
23253;BME280;11795;47.054;15.408;2023-05-29T02:08:00;97330;;;16.5;67.6
23253;BME280;11795;47.054;15.408;2023-05-29T02:10:00;97330;;;16.5;67.9
23253;BME280;11795;47.054;15.408;2023-05-29T02:12:01;97330;;;16.4;68.3
23253;BME280;11795;47.054;15.408;2023-05-29T02:14:03;97330;;;16.4;68.3
23253;BME280;11795;47.054;15.408;2023-05-29T02:16:00;97330;;;16.5;67.9
23253;BME280;11795;47.054;15.408;2023-05-29T02:18:01;97330;;;16.2;68.5
23253;BME280;11795;47.054;15.408;2023-05-29T02:20:00;97330;;;16.2;68.7
23253;BME280;11795;47.054;15.408;2023-05-29T02:22:00;97330;;;16.2;68.6
23253;BME280;11795;47.054;15.408;2023-05-29T02:24:00;97320;;;16.1;69.4
23253;BME280;11795;47.054;15.408;2023-05-29T02:26:00;97330;;;16.2;69.0
23253;BME280;11795;47.054;15.408;2023-05-29T02:28:00;97330;;;16.0;69.5
23253;BME280;11795;47.054;15.408;2023-05-29T02:30:00;97330;;;16.0;69.5
23253;BME280;11795;47.054;15.408;2023-05-29T02:32:00;97330;;;16.0;69.2
23253;BME280;11795;47.054;15.408;2023-05-29T02:34:00;97330;;;15.9;69.6
23253;BME280;11795;47.054;15.408;2023-05-29T02:36:00;97330;;;16.1;69.2
23253;BME280;11795;47.054;15.408;2023-05-29T02:38:00;97330;;;15.9;69.6
23253;BME280;11795;47.054;15.408;2023-05-29T02:40:00;97330;;;15.9;69.7
23253;BME280;11795;47.054;15.408;2023-05-29T02:42:00;97330;;;16.0;69.3
23253;BME280;11795;47.054;15.408;2023-05-29T02:44:00;97330;;;15.8;70.0
23253;BME280;11795;47.054;15.408;2023-05-29T02:46:00;97330;;;16.0;69.3
23253;BME280;11795;47.054;15.408;2023-05-29T02:48:00;97330;;;15.9;69.8
23253;BME280;11795;47.054;15.408;2023-05-29T02:50:01;97330;;;15.8;70.7
23253;BME280;11795;47.054;15.408;2023-05-29T02:52:00;97330;;;15.8;70.7
23253;BME280;11795;47.054;15.408;2023-05-29T02:54:00;97330;;;15.6;71.4
23253;BME280;11795;47.054;15.408;2023-05-29T02:56:00;97330;;;15.9;70.4
23253;BME280;11795;47.054;15.408;2023-05-29T02:58:01;97330;;;15.7;71.0
23253;BME280;11795;47.054;15.408;2023-05-29T03:00:01;97340;;;15.9;70.3
23253;BME280;11795;47.054;15.408;2023-05-29T03:02:00;97340;;;15.8;70.5
23253;BME280;11795;47.054;15.408;2023-05-29T03:04:00;97340;;;15.6;71.3
23253;BME280;11795;47.054;15.408;2023-05-29T03:06:00;97340;;;15.7;70.9
23253;BME280;11795;47.054;15.408;2023-05-29T03:08:00;97340;;;15.5;71.6
23253;BME280;11795;47.054;15.408;2023-05-29T03:10:01;97350;;;15.6;71.2
23253;BME280;11795;47.054;15.408;2023-05-29T03:12:01;97350;;;15.5;71.6
23253;BME280;11795;47.054;15.408;2023-05-29T03:14:00;97340;;;15.4;72.0
23253;BME280;11795;47.054;15.408;2023-05-29T03:16:00;97340;;;15.6;71.6
23253;BME280;11795;47.054;15.408;2023-05-29T03:18:00;97340;;;15.4;72.2
23253;BME280;11795;47.054;15.408;2023-05-29T03:20:00;97340;;;15.3;72.6
23253;BME280;11795;47.054;15.408;2023-05-29T03:22:00;97340;;;15.5;72.0
23253;BME280;11795;47.054;15.408;2023-05-29T03:24:00;97340;;;15.3;72.5
23253;BME280;11795;47.054;15.408;2023-05-29T03:26:02;97340;;;15.5;71.8
23253;BME280;11795;47.054;15.408;2023-05-29T03:28:00;97350;;;15.4;72.0
23253;BME280;11795;47.054;15.408;2023-05-29T03:30:00;97350;;;15.3;72.6
23253;BME280;11795;47.054;15.408;2023-05-29T03:32:00;97340;;;15.4;72.3
23253;BME280;11795;47.054;15.408;2023-05-29T03:34:00;97350;;;15.3;72.8
23253;BME280;11795;47.054;15.408;2023-05-29T03:36:00;97350;;;15.5;72.3
23253;BME280;11795;47.054;15.408;2023-05-29T03:38:00;97350;;;15.3;72.9
23253;BME280;11795;47.054;15.408;2023-05-29T03:40:00;97350;;;15.2;73.4
23253;BME280;11795;47.054;15.408;2023-05-29T03:42:02;97350;;;15.3;72.9
23253;BME280;11795;47.054;15.408;2023-05-29T03:44:00;97350;;;15.3;73.0
23253;BME280;11795;47.054;15.408;2023-05-29T03:46:00;97350;;;15.5;72.2
23253;BME280;11795;47.054;15.408;2023-05-29T03:48:00;97350;;;15.3;72.8
23253;BME280;11795;47.054;15.408;2023-05-29T03:50:00;97350;;;15.2;73.3
23253;BME280;11795;47.054;15.408;2023-05-29T03:52:00;97350;;;15.4;73.0
23253;BME280;11795;47.054;15.408;2023-05-29T03:54:00;97350;;;15.3;73.3
23253;BME280;11795;47.054;15.408;2023-05-29T03:56:00;97350;;;15.5;72.7
23253;BME280;11795;47.054;15.408;2023-05-29T03:58:00;97350;;;15.4;72.9
23253;BME280;11795;47.054;15.408;2023-05-29T04:00:00;97350;;;15.3;73.1
23253;BME280;11795;47.054;15.408;2023-05-29T04:02:00;97350;;;15.4;72.6
23253;BME280;11795;47.054;15.408;2023-05-29T04:04:00;97350;;;15.4;73.1
23253;BME280;11795;47.054;15.408;2023-05-29T04:06:00;97350;;;15.6;72.4
23253;BME280;11795;47.054;15.408;2023-05-29T04:08:01;97350;;;15.5;72.6
23253;BME280;11795;47.054;15.408;2023-05-29T04:10:00;97360;;;15.4;73.1
23253;BME280;11795;47.054;15.408;2023-05-29T04:12:02;97360;;;15.5;72.8
23253;BME280;11795;47.054;15.408;2023-05-29T04:14:01;97360;;;15.5;73.0
23253;BME280;11795;47.054;15.408;2023-05-29T04:16:00;97360;;;15.8;72.2
23253;BME280;11795;47.054;15.408;2023-05-29T04:18:00;97360;;;15.7;72.7
23253;BME280;11795;47.054;15.408;2023-05-29T04:20:06;97360;;;15.9;71.9
23253;BME280;11795;47.054;15.408;2023-05-29T04:22:00;97360;;;15.8;72.0
23253;BME280;11795;47.054;15.408;2023-05-29T04:24:00;97360;;;15.8;72.4
23253;BME280;11795;47.054;15.408;2023-05-29T04:26:02;97360;;;16.0;71.7
23253;BME280;11795;47.054;15.408;2023-05-29T04:28:03;97360;;;15.9;72.1
23253;BME280;11795;47.054;15.408;2023-05-29T04:30:00;97360;;;15.9;72.3
23253;BME280;11795;47.054;15.408;2023-05-29T04:32:03;97360;;;16.1;71.7
23253;BME280;11795;47.054;15.408;2023-05-29T04:34:04;97370;;;16.0;71.9
23253;BME280;11795;47.054;15.408;2023-05-29T04:36:01;97370;;;16.3;71.2
23253;BME280;11795;47.054;15.408;2023-05-29T04:38:00;97370;;;16.2;71.6
23253;BME280;11795;47.054;15.408;2023-05-29T04:40:01;97370;;;16.4;71.1
23253;BME280;11795;47.054;15.408;2023-05-29T04:42:00;97370;;;16.4;71.2
23253;BME280;11795;47.054;15.408;2023-05-29T04:44:00;97380;;;16.3;71.4
23253;BME280;11795;47.054;15.408;2023-05-29T04:46:02;97380;;;16.5;71.1
23253;BME280;11795;47.054;15.408;2023-05-29T04:48:00;97380;;;16.4;71.4
23253;BME280;11795;47.054;15.408;2023-05-29T04:50:01;97390;;;16.4;71.8
23253;BME280;11795;47.054;15.408;2023-05-29T04:52:00;97390;;;16.6;71.0
23253;BME280;11795;47.054;15.408;2023-05-29T04:54:00;97390;;;16.6;71.1
23253;BME280;11795;47.054;15.408;2023-05-29T04:56:00;97390;;;16.9;70.6
23253;BME280;11795;47.054;15.408;2023-05-29T04:58:00;97390;;;16.8;70.8
23253;BME280;11795;47.054;15.408;2023-05-29T05:00:01;97390;;;16.9;70.9
23253;BME280;11795;47.054;15.408;2023-05-29T05:02:00;97390;;;16.9;70.6
23253;BME280;11795;47.054;15.408;2023-05-29T05:04:00;97390;;;16.9;71.3
23253;BME280;11795;47.054;15.408;2023-05-29T05:06:03;97400;;;17.1;70.6
23253;BME280;11795;47.054;15.408;2023-05-29T05:08:00;97390;;;17.1;70.6
23253;BME280;11795;47.054;15.408;2023-05-29T05:10:00;97400;;;17.1;70.4
23253;BME280;11795;47.054;15.408;2023-05-29T05:12:01;97400;;;17.3;69.6
23253;BME280;11795;47.054;15.408;2023-05-29T05:14:00;97400;;;17.3;69.6
23253;BME280;11795;47.054;15.408;2023-05-29T05:16:01;97400;;;17.5;69.0
23253;BME280;11795;47.054;15.408;2023-05-29T05:18:00;97400;;;17.5;69.1
23253;BME280;11795;47.054;15.408;2023-05-29T05:20:00;97400;;;17.5;69.1
23253;BME280;11795;47.054;15.408;2023-05-29T05:22:00;97400;;;17.8;68.3
23253;BME280;11795;47.054;15.408;2023-05-29T05:24:00;97390;;;17.8;68.3
23253;BME280;11795;47.054;15.408;2023-05-29T05:26:00;97400;;;18.1;67.6
23253;BME280;11795;47.054;15.408;2023-05-29T05:28:00;97400;;;18.1;66.6
23253;BME280;11795;47.054;15.408;2023-05-29T05:30:01;97400;;;18.1;66.8
23253;BME280;11795;47.054;15.408;2023-05-29T05:32:00;97400;;;18.4;66.0
23253;BME280;11795;47.054;15.408;2023-05-29T05:34:00;97400;;;18.4;65.7
23253;BME280;11795;47.054;15.408;2023-05-29T05:36:00;97400;;;18.6;65.2
23253;BME280;11795;47.054;15.408;2023-05-29T05:38:00;97400;;;18.6;65.4
23253;BME280;11795;47.054;15.408;2023-05-29T05:40:00;97400;;;18.7;65.4
23253;BME280;11795;47.054;15.408;2023-05-29T05:42:01;97400;;;19.0;65.0
23253;BME280;11795;47.054;15.408;2023-05-29T05:44:00;97400;;;19.0;65.1
23253;BME280;11795;47.054;15.408;2023-05-29T05:46:00;97400;;;19.2;64.6
23253;BME280;11795;47.054;15.408;2023-05-29T05:48:01;97400;;;19.3;63.6
23253;BME280;11795;47.054;15.408;2023-05-29T05:50:00;97400;;;19.3;63.6
23253;BME280;11795;47.054;15.408;2023-05-29T05:52:00;97400;;;19.6;62.8
23253;BME280;11795;47.054;15.408;2023-05-29T05:54:00;97400;;;19.6;62.6
23253;BME280;11795;47.054;15.408;2023-05-29T05:56:01;97400;;;19.9;61.9
23253;BME280;11795;47.054;15.408;2023-05-29T05:58:00;97400;;;19.8;61.3
23253;BME280;11795;47.054;15.408;2023-05-29T06:00:00;97400;;;19.8;60.9
23253;BME280;11795;47.054;15.408;2023-05-29T06:02:00;97400;;;19.9;60.0
23253;BME280;11795;47.054;15.408;2023-05-29T06:04:00;97400;;;19.8;60.0
23253;BME280;11795;47.054;15.408;2023-05-29T06:06:00;97410;;;20.1;60.2
23253;BME280;11795;47.054;15.408;2023-05-29T06:08:00;97410;;;20.2;59.8
23253;BME280;11795;47.054;15.408;2023-05-29T06:10:00;97410;;;20.2;59.9
23253;BME280;11795;47.054;15.408;2023-05-29T06:12:00;97410;;;20.4;58.5
23253;BME280;11795;47.054;15.408;2023-05-29T06:14:00;97410;;;20.4;58.4
23253;BME280;11795;47.054;15.408;2023-05-29T06:16:00;97410;;;20.5;57.6
23253;BME280;11795;47.054;15.408;2023-05-29T06:18:00;97410;;;20.4;57.8
23253;BME280;11795;47.054;15.408;2023-05-29T06:20:00;97410;;;20.4;58.6
23253;BME280;11795;47.054;15.408;2023-05-29T06:22:01;97410;;;20.6;58.2
23253;BME280;11795;47.054;15.408;2023-05-29T06:24:00;97410;;;20.6;58.7
23253;BME280;11795;47.054;15.408;2023-05-29T06:26:00;97410;;;20.8;57.7
23253;BME280;11795;47.054;15.408;2023-05-29T06:28:00;97410;;;20.8;57.7
23253;BME280;11795;47.054;15.408;2023-05-29T06:30:00;97410;;;20.7;58.8
23253;BME280;11795;47.054;15.408;2023-05-29T06:32:00;97410;;;20.9;57.9
23253;BME280;11795;47.054;15.408;2023-05-29T06:34:00;97400;;;20.7;57.9
23253;BME280;11795;47.054;15.408;2023-05-29T06:36:00;97410;;;20.8;57.4
23253;BME280;11795;47.054;15.408;2023-05-29T06:38:00;97410;;;20.6;57.6
23253;BME280;11795;47.054;15.408;2023-05-29T06:40:00;97420;;;20.5;57.9
23253;BME280;11795;47.054;15.408;2023-05-29T06:42:01;97420;;;20.5;59.0
23253;BME280;11795;47.054;15.408;2023-05-29T06:44:00;97420;;;20.5;58.7
23253;BME280;11795;47.054;15.408;2023-05-29T06:46:00;97420;;;20.7;57.8
23253;BME280;11795;47.054;15.408;2023-05-29T06:48:00;97420;;;20.8;58.0
23253;BME280;11795;47.054;15.408;2023-05-29T06:50:01;97420;;;20.9;58.6
23253;BME280;11795;47.054;15.408;2023-05-29T06:52:00;97420;;;21.2;58.1
23253;BME280;11795;47.054;15.408;2023-05-29T06:54:00;97420;;;21.3;55.9
23253;BME280;11795;47.054;15.408;2023-05-29T06:56:00;97420;;;21.2;55.2
23253;BME280;11795;47.054;15.408;2023-05-29T06:58:00;97420;;;21.3;54.8
23253;BME280;11795;47.054;15.408;2023-05-29T07:00:00;97420;;;21.3;54.3
23253;BME280;11795;47.054;15.408;2023-05-29T07:02:00;97420;;;21.6;53.8
23253;BME280;11795;47.054;15.408;2023-05-29T07:04:00;97420;;;21.5;54.1
23253;BME280;11795;47.054;15.408;2023-05-29T07:06:00;97410;;;21.7;54.8
23253;BME280;11795;47.054;15.408;2023-05-29T07:08:00;97420;;;21.9;55.0
23253;BME280;11795;47.054;15.408;2023-05-29T07:10:00;97420;;;21.9;52.7
23253;BME280;11795;47.054;15.408;2023-05-29T07:12:00;97420;;;22.3;52.7
23253;BME280;11795;47.054;15.408;2023-05-29T07:14:00;97420;;;22.3;53.3
23253;BME280;11795;47.054;15.408;2023-05-29T07:16:00;97410;;;22.5;52.5
23253;BME280;11795;47.054;15.408;2023-05-29T07:18:00;97420;;;22.8;51.9
23253;BME280;11795;47.054;15.408;2023-05-29T07:20:00;97410;;;22.9;51.1
23253;BME280;11795;47.054;15.408;2023-05-29T07:22:00;97420;;;23.2;50.5
23253;BME280;11795;47.054;15.408;2023-05-29T07:24:01;97410;;;23.2;50.2
23253;BME280;11795;47.054;15.408;2023-05-29T07:26:00;97410;;;23.2;48.8
23253;BME280;11795;47.054;15.408;2023-05-29T07:28:00;97420;;;23.4;47.8
23253;BME280;11795;47.054;15.408;2023-05-29T07:30:00;97420;;;23.4;47.3
23253;BME280;11795;47.054;15.408;2023-05-29T07:32:00;97420;;;23.7;46.5
23253;BME280;11795;47.054;15.408;2023-05-29T07:34:00;97420;;;23.6;45.9
23253;BME280;11795;47.054;15.408;2023-05-29T07:36:00;97420;;;23.6;45.4
23253;BME280;11795;47.054;15.408;2023-05-29T07:38:00;97420;;;23.7;44.5
23253;BME280;11795;47.054;15.408;2023-05-29T07:40:00;97420;;;23.7;45.1
23253;BME280;11795;47.054;15.408;2023-05-29T07:42:01;97420;;;23.7;44.9
23253;BME280;11795;47.054;15.408;2023-05-29T07:44:00;97420;;;23.4;45.1
23253;BME280;11795;47.054;15.408;2023-05-29T07:46:00;97420;;;23.5;45.1
23253;BME280;11795;47.054;15.408;2023-05-29T07:48:00;97420;;;23.7;45.8
23253;BME280;11795;47.054;15.408;2023-05-29T07:50:00;97410;;;23.7;45.3
23253;BME280;11795;47.054;15.408;2023-05-29T07:52:00;97410;;;23.9;45.0
23253;BME280;11795;47.054;15.408;2023-05-29T07:54:00;97410;;;23.7;43.3
23253;BME280;11795;47.054;15.408;2023-05-29T07:56:00;97420;;;23.6;43.6
23253;BME280;11795;47.054;15.408;2023-05-29T07:58:02;97420;;;23.7;43.8
23253;BME280;11795;47.054;15.408;2023-05-29T08:00:03;97420;;;23.6;43.9
23253;BME280;11795;47.054;15.408;2023-05-29T08:02:03;97420;;;23.7;43.8
23253;BME280;11795;47.054;15.408;2023-05-29T08:04:01;97420;;;23.8;43.1
23253;BME280;11795;47.054;15.408;2023-05-29T08:06:01;97410;;;24.0;42.9
23253;BME280;11795;47.054;15.408;2023-05-29T08:08:00;97410;;;24.0;43.4
23253;BME280;11795;47.054;15.408;2023-05-29T08:10:00;97410;;;24.0;42.0
23253;BME280;11795;47.054;15.408;2023-05-29T08:12:01;97410;;;24.2;41.9
23253;BME280;11795;47.054;15.408;2023-05-29T08:14:00;97410;;;24.2;42.2
23253;BME280;11795;47.054;15.408;2023-05-29T08:16:00;97400;;;24.3;42.5
23253;BME280;11795;47.054;15.408;2023-05-29T08:18:00;97410;;;24.2;40.9
23253;BME280;11795;47.054;15.408;2023-05-29T08:20:00;97410;;;24.2;41.7
23253;BME280;11795;47.054;15.408;2023-05-29T08:22:00;97410;;;24.2;41.3
23253;BME280;11795;47.054;15.408;2023-05-29T08:24:02;97410;;;24.1;41.3
23253;BME280;11795;47.054;15.408;2023-05-29T08:26:01;97410;;;24.0;41.9
23253;BME280;11795;47.054;15.408;2023-05-29T08:28:00;97410;;;24.1;42.0
23253;BME280;11795;47.054;15.408;2023-05-29T08:30:00;97410;;;23.7;43.7
23253;BME280;11795;47.054;15.408;2023-05-29T08:32:01;97410;;;23.8;42.1
23253;BME280;11795;47.054;15.408;2023-05-29T08:34:00;97410;;;23.5;42.5
23253;BME280;11795;47.054;15.408;2023-05-29T08:36:00;97410;;;23.1;43.4
23253;BME280;11795;47.054;15.408;2023-05-29T08:38:00;97410;;;23.4;43.7
23253;BME280;11795;47.054;15.408;2023-05-29T08:40:00;97410;;;23.5;43.3
23253;BME280;11795;47.054;15.408;2023-05-29T08:42:04;97410;;;23.7;43.0
23253;BME280;11795;47.054;15.408;2023-05-29T08:44:02;97400;;;23.8;44.0
23253;BME280;11795;47.054;15.408;2023-05-29T08:46:02;97400;;;24.3;43.6
23253;BME280;11795;47.054;15.408;2023-05-29T08:48:01;97390;;;24.4;43.3
23253;BME280;11795;47.054;15.408;2023-05-29T08:50:01;97390;;;24.5;42.5
23253;BME280;11795;47.054;15.408;2023-05-29T08:52:06;97390;;;24.9;40.5
23253;BME280;11795;47.054;15.408;2023-05-29T08:54:00;97390;;;24.8;40.5
23253;BME280;11795;47.054;15.408;2023-05-29T08:56:01;97390;;;24.7;41.4
23253;BME280;11795;47.054;15.408;2023-05-29T08:58:02;97390;;;24.9;40.9
23253;BME280;11795;47.054;15.408;2023-05-29T09:00:01;97390;;;24.9;41.2
23253;BME280;11795;47.054;15.408;2023-05-29T09:02:00;97390;;;25.1;41.1
23253;BME280;11795;47.054;15.408;2023-05-29T09:04:01;97380;;;24.9;41.3
23253;BME280;11795;47.054;15.408;2023-05-29T09:06:00;97380;;;24.8;40.5
23253;BME280;11795;47.054;15.408;2023-05-29T09:08:00;97380;;;24.7;40.6
23253;BME280;11795;47.054;15.408;2023-05-29T09:10:00;97380;;;24.7;41.3
23253;BME280;11795;47.054;15.408;2023-05-29T09:12:00;97380;;;24.9;40.8
23253;BME280;11795;47.054;15.408;2023-05-29T09:14:02;97380;;;25.1;40.6
23253;BME280;11795;47.054;15.408;2023-05-29T09:16:02;97380;;;25.4;40.5
23253;BME280;11795;47.054;15.408;2023-05-29T09:18:01;97380;;;25.3;39.5
23253;BME280;11795;47.054;15.408;2023-05-29T09:20:00;97380;;;25.0;40.0
23253;BME280;11795;47.054;15.408;2023-05-29T09:22:02;97380;;;25.2;39.4
23253;BME280;11795;47.054;15.408;2023-05-29T09:24:03;97390;;;25.3;40.0
23253;BME280;11795;47.054;15.408;2023-05-29T09:26:02;97390;;;25.4;39.9
23253;BME280;11795;47.054;15.408;2023-05-29T09:28:02;97380;;;25.3;39.7
23253;BME280;11795;47.054;15.408;2023-05-29T09:30:00;97380;;;25.2;40.4
23253;BME280;11795;47.054;15.408;2023-05-29T09:32:00;97390;;;24.9;39.9
23253;BME280;11795;47.054;15.408;2023-05-29T09:34:01;97380;;;24.8;41.9
23253;BME280;11795;47.054;15.408;2023-05-29T09:36:00;97390;;;24.9;41.7
23253;BME280;11795;47.054;15.408;2023-05-29T09:38:01;97380;;;25.3;39.7
23253;BME280;11795;47.054;15.408;2023-05-29T09:40:00;97380;;;25.1;40.1
23253;BME280;11795;47.054;15.408;2023-05-29T09:42:01;97380;;;25.0;40.0
23253;BME280;11795;47.054;15.408;2023-05-29T09:44:01;97380;;;25.0;40.3
23253;BME280;11795;47.054;15.408;2023-05-29T09:46:00;97380;;;25.1;40.6
23253;BME280;11795;47.054;15.408;2023-05-29T09:48:01;97380;;;25.4;40.3
23253;BME280;11795;47.054;15.408;2023-05-29T09:50:00;97370;;;25.5;38.3
23253;BME280;11795;47.054;15.408;2023-05-29T09:52:00;97370;;;25.6;39.8
23253;BME280;11795;47.054;15.408;2023-05-29T09:54:15;97380;;;25.6;40.9
23253;BME280;11795;47.054;15.408;2023-05-29T09:56:01;97380;;;25.7;41.5
23253;BME280;11795;47.054;15.408;2023-05-29T09:58:00;97380;;;26.1;39.9
23253;BME280;11795;47.054;15.408;2023-05-29T10:00:01;97380;;;26.2;39.5
23253;BME280;11795;47.054;15.408;2023-05-29T10:02:02;97380;;;26.6;37.5
23253;BME280;11795;47.054;15.408;2023-05-29T10:04:00;97370;;;26.6;37.1
23253;BME280;11795;47.054;15.408;2023-05-29T10:06:01;97380;;;26.6;36.7
23253;BME280;11795;47.054;15.408;2023-05-29T10:08:03;97370;;;26.7;35.6
23253;BME280;11795;47.054;15.408;2023-05-29T10:10:03;97370;;;26.5;36.3
23253;BME280;11795;47.054;15.408;2023-05-29T10:12:03;97370;;;26.1;36.7
23253;BME280;11795;47.054;15.408;2023-05-29T10:14:02;97370;;;26.1;37.7
23253;BME280;11795;47.054;15.408;2023-05-29T10:16:01;97370;;;26.1;38.2
23253;BME280;11795;47.054;15.408;2023-05-29T10:18:03;97370;;;26.0;37.9
23253;BME280;11795;47.054;15.408;2023-05-29T10:20:02;97370;;;25.6;38.1
23253;BME280;11795;47.054;15.408;2023-05-29T10:22:01;97370;;;25.4;39.1
23253;BME280;11795;47.054;15.408;2023-05-29T10:24:03;97360;;;25.1;40.2
23253;BME280;11795;47.054;15.408;2023-05-29T10:26:07;97360;;;25.1;39.6
23253;BME280;11795;47.054;15.408;2023-05-29T10:28:00;97360;;;25.2;40.0
23253;BME280;11795;47.054;15.408;2023-05-29T10:30:06;97350;;;25.4;40.5
23253;BME280;11795;47.054;15.408;2023-05-29T10:32:12;97350;;;25.4;39.3
23253;BME280;11795;47.054;15.408;2023-05-29T10:34:09;97350;;;25.6;39.1
23253;BME280;11795;47.054;15.408;2023-05-29T10:36:07;97350;;;25.8;37.6
23253;BME280;11795;47.054;15.408;2023-05-29T10:38:11;97360;;;25.9;37.3
23253;BME280;11795;47.054;15.408;2023-05-29T10:40:04;97350;;;25.8;37.2
23253;BME280;11795;47.054;15.408;2023-05-29T10:42:00;97360;;;25.7;37.2
23253;BME280;11795;47.054;15.408;2023-05-29T10:44:01;97360;;;25.5;37.9
23253;BME280;11795;47.054;15.408;2023-05-29T10:46:00;97360;;;25.6;37.8
23253;BME280;11795;47.054;15.408;2023-05-29T10:50:02;97360;;;25.9;36.3
23253;BME280;11795;47.054;15.408;2023-05-29T10:52:03;97350;;;25.8;35.7
23253;BME280;11795;47.054;15.408;2023-05-29T10:54:00;97350;;;25.8;35.9
23253;BME280;11795;47.054;15.408;2023-05-29T10:56:01;97350;;;25.5;36.2
23253;BME280;11795;47.054;15.408;2023-05-29T10:58:04;97350;;;25.8;36.7
23253;BME280;11795;47.054;15.408;2023-05-29T11:00:05;97350;;;25.8;37.6
23253;BME280;11795;47.054;15.408;2023-05-29T11:02:00;97350;;;25.7;38.0
23253;BME280;11795;47.054;15.408;2023-05-29T11:06:03;97350;;;25.9;37.3
23253;BME280;11795;47.054;15.408;2023-05-29T11:08:02;97350;;;26.0;36.6
23253;BME280;11795;47.054;15.408;2023-05-29T11:10:10;97350;;;26.0;36.9
23253;BME280;11795;47.054;15.408;2023-05-29T11:12:11;97340;;;26.3;36.8
23253;BME280;11795;47.054;15.408;2023-05-29T11:14:02;97340;;;26.3;36.7
23253;BME280;11795;47.054;15.408;2023-05-29T11:16:05;97350;;;26.3;35.4